createdAt,value
2022-08-21T00:02:21.557Z,14.90
2022-08-21T00:06:03.852Z,14.80
2022-08-21T00:09:46.279Z,14.80
2022-08-21T00:13:28.471Z,14.80
2022-08-21T00:17:10.511Z,14.70
2022-08-21T00:20:52.500Z,14.70
2022-08-21T00:24:34.988Z,14.60
2022-08-21T00:28:17.218Z,14.60
2022-08-21T00:31:59.999Z,14.60
2022-08-21T00:35:44.352Z,14.50
2022-08-21T00:39:26.303Z,14.50
2022-08-21T00:43:11.900Z,14.50
2022-08-21T00:46:53.978Z,14.50
2022-08-21T00:50:41.087Z,14.50
2022-08-21T00:54:26.888Z,14.40
2022-08-21T00:58:12.818Z,14.50
2022-08-21T01:01:55.584Z,14.40
2022-08-21T01:05:38.050Z,14.40
2022-08-21T01:09:21.061Z,14.40
2022-08-21T01:13:04.165Z,14.40
2022-08-21T01:16:49.494Z,14.40
2022-08-21T01:20:33.075Z,14.40
2022-08-21T01:24:15.851Z,14.40
2022-08-21T01:28:00.203Z,14.40
2022-08-21T01:31:42.295Z,14.40
2022-08-21T01:35:24.387Z,14.30
2022-08-21T01:39:07.098Z,14.30
2022-08-21T01:42:49.610Z,14.30
2022-08-21T01:46:32.007Z,14.20
2022-08-21T01:50:17.023Z,14.20
2022-08-21T01:53:59.132Z,14.20
2022-08-21T01:57:41.746Z,14.10
2022-08-21T02:01:23.729Z,14.10
2022-08-21T02:05:06.880Z,14.10
2022-08-21T02:08:48.887Z,14.00
2022-08-21T02:12:31.065Z,14.00
2022-08-21T02:16:13.730Z,14.00
2022-08-21T02:20:01.468Z,14.00
2022-08-21T02:23:43.749Z,14.00
2022-08-21T02:27:27.494Z,14.00
2022-08-21T02:31:09.799Z,14.00
2022-08-21T02:34:51.679Z,14.00
2022-08-21T02:38:38.986Z,14.10
2022-08-21T02:42:21.095Z,14.10
2022-08-21T02:46:05.045Z,14.10
2022-08-21T02:49:46.953Z,14.10
2022-08-21T02:53:30.634Z,14.20
2022-08-21T02:57:12.698Z,14.20
2022-08-21T03:00:55.380Z,14.20
2022-08-21T03:04:37.443Z,14.30
2022-08-21T03:08:20.071Z,14.40
2022-08-21T03:12:02.884Z,14.50
2022-08-21T03:15:45.337Z,14.60
2022-08-21T03:19:27.368Z,14.70
2022-08-21T03:23:13.359Z,14.80
2022-08-21T03:26:58.906Z,14.80
2022-08-21T03:30:43.421Z,14.90
2022-08-21T03:34:25.315Z,14.90
2022-08-21T03:38:07.648Z,14.80
2022-08-21T03:41:49.525Z,14.80
2022-08-21T03:45:31.586Z,14.60
2022-08-21T03:49:14.355Z,14.60
2022-08-21T03:52:57.207Z,14.50
2022-08-21T03:56:40.358Z,14.50
2022-08-21T04:00:23.818Z,14.40
2022-08-21T04:04:06.164Z,14.40
2022-08-21T04:07:48.040Z,14.40
2022-08-21T04:11:29.954Z,14.40
2022-08-21T04:15:11.879Z,14.40
2022-08-21T04:18:53.783Z,14.40
2022-08-21T04:22:35.816Z,14.40
2022-08-21T04:26:18.024Z,14.40
2022-08-21T04:30:01.107Z,14.40
2022-08-21T04:33:43.097Z,14.40
2022-08-21T04:37:25.644Z,14.40
2022-08-21T04:41:07.703Z,14.40
2022-08-21T04:44:50.114Z,14.40
2022-08-21T04:48:32.078Z,14.50
2022-08-21T04:52:18.280Z,14.40
2022-08-21T04:56:09.409Z,14.50
2022-08-21T04:59:52.490Z,14.50
2022-08-21T05:03:37.540Z,14.60
2022-08-21T05:07:42.311Z,14.60
2022-08-21T05:11:25.120Z,14.60
2022-08-21T05:15:08.095Z,14.70
2022-08-21T05:18:54.773Z,14.80
2022-08-21T05:22:36.680Z,14.80
2022-08-21T05:26:18.776Z,14.80
2022-08-21T05:30:02.040Z,14.80
2022-08-21T05:33:44.091Z,14.80
2022-08-21T05:37:26.018Z,14.80
2022-08-21T05:41:08.478Z,14.80
2022-08-21T05:44:50.547Z,14.80
2022-08-21T05:48:33.744Z,14.80
2022-08-21T05:52:23.653Z,14.90
2022-08-21T05:56:06.138Z,15.00
2022-08-21T05:59:48.407Z,15.10
2022-08-21T06:03:33.022Z,15.20
2022-08-21T06:07:52.706Z,15.20
2022-08-21T06:11:35.050Z,15.20
2022-08-21T06:15:54.637Z,15.30
2022-08-21T06:23:36.306Z,15.50
2022-08-21T06:27:19.991Z,15.50
2022-08-21T06:31:25.717Z,15.50
2022-08-21T06:35:08.103Z,15.50
2022-08-21T06:39:25.411Z,15.50
2022-08-21T06:43:55.300Z,15.50
2022-08-21T06:47:41.811Z,15.60
2022-08-21T06:51:38.450Z,15.70
2022-08-21T06:55:29.356Z,15.80
2022-08-21T06:59:27.863Z,15.90
2022-08-21T07:03:21.382Z,16.10
2022-08-21T07:07:54.798Z,16.20
2022-08-21T07:11:50.915Z,16.40
2022-08-21T07:19:38.319Z,16.90
2022-08-21T07:24:08.752Z,17.30
2022-08-21T07:28:11.574Z,17.70
2022-08-21T07:32:04.481Z,18.10
2022-08-21T07:36:04.356Z,18.30
2022-08-21T07:40:33.217Z,18.50
2022-08-21T07:45:04.086Z,18.60
2022-08-21T07:49:34.599Z,18.60
2022-08-21T07:54:03.810Z,18.60
2022-08-21T07:58:34.479Z,18.60
2022-08-21T08:03:05.261Z,18.60
2022-08-21T08:07:36.114Z,18.60
2022-08-21T08:12:05.737Z,18.60
2022-08-21T08:16:36.322Z,18.70
2022-08-21T08:21:08.362Z,18.70
2022-08-21T08:31:14.064Z,19.00
2022-08-21T08:35:46.690Z,19.30
2022-08-21T08:40:50.664Z,19.50
2022-08-21T08:45:53.311Z,19.70
2022-08-21T08:50:24.463Z,20.00
2022-08-21T08:54:52.945Z,20.50
2022-08-21T08:59:25.110Z,21.00
2022-08-21T09:03:57.067Z,21.50
2022-08-21T09:08:27.013Z,21.90
2022-08-21T09:12:57.517Z,22.40
2022-08-21T09:22:00.705Z,23.50
2022-08-21T09:25:59.234Z,24.30
2022-08-21T09:29:55.524Z,24.90
2022-08-21T09:33:45.111Z,25.70
2022-08-21T09:37:44.697Z,26.60
2022-08-21T09:41:40.536Z,27.80
2022-08-21T09:45:39.254Z,29.80
2022-08-21T09:49:36.802Z,31.80
2022-08-21T09:54:01.156Z,33.40
2022-08-21T09:58:31.901Z,34.40
2022-08-21T10:02:33.970Z,35.40
2022-08-21T10:11:07.039Z,36.90
2022-08-21T10:14:59.441Z,37.70
2022-08-21T10:23:58.417Z,38.10
2022-08-21T10:27:52.216Z,38.40
2022-08-21T10:32:26.222Z,38.90
2022-08-21T10:41:59.608Z,39.60
2022-08-21T10:50:58.011Z,38.20
2022-08-21T10:55:27.694Z,36.00
2022-08-21T10:59:57.110Z,34.50
2022-08-21T11:04:32.125Z,33.20
2022-08-21T11:13:59.794Z,31.30
2022-08-21T11:18:29.907Z,30.60
2022-08-21T11:23:03.989Z,30.30
2022-08-21T11:31:29.488Z,29.90
2022-08-21T11:36:06.565Z,29.60
2022-08-21T11:45:07.530Z,29.20
2022-08-21T11:49:02.095Z,29.10
2022-08-21T11:53:24.714Z,28.90
2022-08-21T11:57:31.985Z,28.70
2022-08-21T12:06:24.910Z,28.70
2022-08-21T12:10:53.651Z,28.70
2022-08-21T12:15:26.112Z,28.60
2022-08-21T12:19:58.695Z,28.30
2022-08-21T12:28:25.816Z,28.40
2022-08-21T12:33:28.962Z,28.50
2022-08-21T12:37:59.376Z,28.80
2022-08-21T12:42:27.887Z,29.10
2022-08-21T12:47:04.353Z,29.20
2022-08-21T12:50:57.627Z,29.10
2022-08-21T12:55:23.827Z,29.10
2022-08-21T12:59:23.637Z,29.10
2022-08-21T13:03:17.137Z,29.20
2022-08-21T13:07:20.453Z,29.40
2022-08-21T13:20:48.135Z,29.60
2022-08-21T13:24:43.198Z,29.60
2022-08-21T13:34:16.475Z,29.90
2022-08-21T13:38:47.283Z,29.90
2022-08-21T13:43:19.927Z,29.90
2022-08-21T13:47:14.795Z,29.80
2022-08-21T13:51:42.121Z,29.60
2022-08-21T13:55:42.855Z,29.40
2022-08-21T13:59:36.961Z,29.30
2022-08-21T14:03:39.425Z,29.20
2022-08-21T14:07:34.134Z,29.10
2022-08-21T14:12:02.570Z,29.10
2022-08-21T14:21:35.009Z,28.90
2022-08-21T14:30:05.721Z,28.40
2022-08-21T14:34:35.870Z,28.20
2022-08-21T14:43:04.612Z,28.00
2022-08-21T14:46:57.040Z,28.00
2022-08-21T15:00:35.506Z,28.40
2022-08-21T15:04:24.354Z,28.30
2022-08-21T15:08:19.236Z,28.20
2022-08-21T15:12:18.652Z,28.00
2022-08-21T15:16:13.800Z,27.80
2022-08-21T15:20:13.467Z,27.70
2022-08-21T15:24:11.405Z,27.50
2022-08-21T15:33:03.948Z,27.30
2022-08-21T15:37:06.369Z,27.20
2022-08-21T15:40:59.125Z,27.20
2022-08-21T15:49:32.411Z,27.10
2022-08-21T15:53:22.053Z,27.00
2022-08-21T16:01:53.301Z,27.00
2022-08-21T16:05:46.025Z,26.90
2022-08-21T16:10:14.321Z,26.80
2022-08-21T16:14:15.549Z,26.90
2022-08-21T16:24:25.580Z,26.60
2022-08-21T16:28:21.068Z,26.50
2022-08-21T16:32:46.254Z,26.40
2022-08-21T16:37:24.303Z,26.30
2022-08-21T16:41:19.835Z,26.30
2022-08-21T16:45:12.986Z,26.20
2022-08-21T16:53:39.208Z,25.90
2022-08-21T16:58:09.853Z,25.70
2022-08-21T17:02:39.794Z,25.50
2022-08-21T17:06:44.224Z,25.20
2022-08-21T17:10:34.312Z,25.10
2022-08-21T17:15:05.259Z,24.90
2022-08-21T17:18:58.287Z,24.70
2022-08-21T17:22:58.200Z,24.60
2022-08-21T17:26:53.578Z,24.40
2022-08-21T17:35:21.938Z,24.10
2022-08-21T17:39:26.410Z,24.00
2022-08-21T17:43:46.569Z,23.90
2022-08-21T17:52:13.710Z,23.70
2022-08-21T17:56:43.576Z,23.50
2022-08-21T18:01:14.845Z,23.40
2022-08-21T18:05:43.563Z,23.30
2022-08-21T18:10:15.977Z,23.20
2022-08-21T18:15:18.439Z,23.00
2022-08-21T18:19:17.587Z,22.90
2022-08-21T18:23:10.812Z,22.70
2022-08-21T18:27:43.151Z,22.60
2022-08-21T18:32:45.495Z,22.50
2022-08-21T18:37:21.220Z,22.30
2022-08-21T18:41:12.289Z,22.20
2022-08-21T18:45:13.207Z,22.20
2022-08-21T18:49:05.786Z,22.10
2022-08-21T18:53:03.762Z,22.00
2022-08-21T18:57:00.285Z,21.90
2022-08-21T19:00:57.175Z,21.80
2022-08-21T19:04:47.990Z,21.60
2022-08-21T19:08:51.299Z,21.40
2022-08-21T19:12:44.578Z,21.30
2022-08-21T19:16:47.175Z,21.10
2022-08-21T19:20:36.996Z,20.80
2022-08-21T19:24:35.959Z,20.60
2022-08-21T19:28:30.942Z,20.40
2022-08-21T19:32:13.185Z,20.20
2022-08-21T19:35:55.094Z,20.00
2022-08-21T19:39:42.477Z,19.80
2022-08-21T19:43:29.612Z,19.70
2022-08-21T19:47:19.082Z,19.50
2022-08-21T19:51:01.287Z,19.40
2022-08-21T19:54:43.351Z,19.30
2022-08-21T19:58:49.970Z,19.10
2022-08-21T20:02:32.146Z,19.00
2022-08-21T20:06:16.559Z,18.90
2022-08-21T20:09:59.636Z,18.80
2022-08-21T20:13:43.394Z,18.70
2022-08-21T20:17:26.579Z,18.60
2022-08-21T20:21:11.015Z,18.50
2022-08-21T20:24:54.035Z,18.40
2022-08-21T20:28:37.853Z,18.30
2022-08-21T20:32:22.471Z,18.20
2022-08-21T20:36:05.375Z,18.20
2022-08-21T20:39:47.337Z,18.10
2022-08-21T20:43:31.137Z,18.00
2022-08-21T20:47:13.803Z,18.00
2022-08-21T20:51:31.022Z,17.90
2022-08-21T20:55:16.883Z,17.80
2022-08-21T20:59:26.071Z,17.70
2022-08-21T21:03:26.379Z,17.60
2022-08-21T21:07:18.421Z,17.50
2022-08-21T21:11:26.335Z,17.40
2022-08-21T21:15:27.903Z,17.30
2022-08-21T21:19:30.128Z,17.20
2022-08-21T21:23:28.899Z,17.20
2022-08-21T21:27:41.257Z,17.10
2022-08-21T21:31:26.276Z,17.00
2022-08-21T21:35:13.574Z,16.90
2022-08-21T21:39:21.541Z,16.80
2022-08-21T21:43:30.374Z,16.70
2022-08-21T21:47:38.938Z,16.70
2022-08-21T21:51:45.205Z,16.60
2022-08-21T21:56:06.791Z,16.60
2022-08-21T22:00:02.069Z,16.50
2022-08-21T22:04:35.493Z,16.50
2022-08-21T22:08:50.752Z,16.40
2022-08-21T22:12:49.734Z,16.30
2022-08-21T22:16:34.444Z,16.20
2022-08-21T22:20:41.185Z,16.10
2022-08-21T22:24:35.615Z,16.10
2022-08-21T22:32:26.129Z,16.00
2022-08-21T22:36:19.548Z,15.90
2022-08-21T22:40:04.234Z,15.80
2022-08-21T22:44:05.630Z,15.70
2022-08-21T22:47:48.885Z,15.70
2022-08-21T22:51:43.853Z,15.60
2022-08-21T22:55:53.514Z,15.50
2022-08-21T22:59:52.158Z,15.50
2022-08-21T23:03:47.044Z,15.50
2022-08-21T23:07:44.520Z,15.40
2022-08-21T23:11:44.852Z,15.30
2022-08-21T23:15:56.397Z,15.30
2022-08-21T23:19:56.849Z,15.20
2022-08-21T23:23:50.131Z,15.10
2022-08-21T23:27:52.574Z,15.10
2022-08-21T23:32:02.983Z,15.00
2022-08-21T23:36:20.458Z,15.00
2022-08-21T23:40:13.679Z,14.90
2022-08-21T23:44:15.147Z,14.90
2022-08-21T23:48:19.853Z,14.80
2022-08-21T23:52:52.408Z,14.80
2022-08-21T23:56:59.149Z,14.70
